Flight Track Log - Related Links

Times and Time Zones

All times are in EST time to prevent confusion due to time zone crossing. See the SWA975 flight status page for this flight to view local times or setup timezone preferences in your user account.

Time Position Orientation Groundspeed Altitude Reporting Facility
EST Latitude Longitude Course Direction KTS MPH feet Rate Location/Type
Sun 10:46:36 AM 39.3167 -94.7167 32° Northeast 140 161 1,900  Level Kansas City TRACON
Sun 10:47:09 AM 39.3339 -94.7028 32° Northeast 159 183 3,100 2,400 Climbing Kansas City Center
Sun 10:48:11 AM 39.3422 -94.6231 82° East 242 278 5,700 2,927 Climbing Kansas City Center
Sun 10:49:12 AM 39.3500 -94.5217 84° East 295 339 9,100 3,934 Climbing Kansas City Center
Sun 10:50:13 AM 39.3589 -94.3864 85° East 342 394 13,700 3,885 Climbing Kansas City Center
Sun 10:51:14 AM 39.3675 -94.2553 85° East 379 436 17,000 3,484 Climbing Kansas City Center
Sun 10:52:17 AM 39.3769 -94.0875 86° East 420 483 20,900 3,264 Climbing Kansas City Center
Sun 10:53:19 AM 39.3861 -93.9331 86° East 447 514 23,800 2,710 Climbing Kansas City Center
Sun 10:54:21 AM 39.4069 -93.7756 80° East 463 533 26,500 2,459 Climbing Kansas City Center
Sun 10:55:21 AM 39.4325 -93.6047 79° East 487 560 28,800 2,410 Climbing Kansas City Center
Sun 10:56:23 AM 39.4600 -93.3914 80° East 501 577 31,400 2,371 Climbing Kansas City Center
Sun 10:57:25 AM 39.4831 -93.2092 81° East 515 593 33,700 2,049 Climbing Kansas City Center
Sun 10:58:26 AM 39.5081 -93.0289 80° East 517 595 35,600 1,935 Climbing Kansas City Center
Sun 10:59:29 AM 39.5297 -92.8436 81° East 523 602 37,700 1,659 Climbing Kansas City Center
Sun 11:00:29 AM 39.5522 -92.6606 81° East 522 601 39,000 639 Climbing Kansas City Center
Sun 11:01:31 AM 39.5753 -92.4794 81° East 519 597 39,000  Level Kansas City Center
Sun 11:02:31 AM 39.6014 -92.2633 81° East 515 593 39,000  Level Kansas City Center
Sun 11:03:34 AM 39.6225 -92.0828 81° East 514 592 39,000  Level Kansas City Center
Sun 11:04:36 AM 39.6442 -91.9006 81° East 516 594 39,000  Level Kansas City Center
Sun 11:05:36 AM 39.6639 -91.7189 82° East 516 594 39,000  Level Kansas City Center
Sun 11:06:39 AM 39.6844 -91.5372 82° East 515 593 39,000  Level Kansas City Center
Sun 11:07:40 AM 39.7097 -91.3153 82° East 518 596 39,000  Level Kansas City Center
Sun 11:08:42 AM 39.7308 -91.1267 82° East 520 598 39,000  Level Kansas City Center
Sun 11:09:44 AM 39.7506 -90.9392 82° East 522 601 39,000  Level Kansas City Center
Sun 11:10:44 AM 39.7717 -90.7417 82° East 527 606 39,000  Level Kansas City Center
Sun 11:11:48 AM 39.7922 -90.5567 82° East 524 603 39,000  Level Kansas City Center
Sun 11:12:49 AM 39.8111 -90.3683 83° East 526 605 39,000  Level Kansas City Center
Sun 11:13:50 AM 39.8306 -90.1806 82° East 526 605 39,000  Level Kansas City Center
Sun 11:14:53 AM 39.8461 -89.9917 84° East 528 608 39,000 829 Level Kansas City Center
Sun 11:15:53 AM 39.8447 -89.7997 90° East 535 616 40,700 976 Climbing Kansas City Center
Sun 11:16:56 AM 39.8453 -89.5733 90° East 529 609 41,000 145 Climbing Kansas City Center
Sun 11:17:57 AM 39.8458 -89.3839 90° East 527 606 41,000  Level Kansas City Center
Sun 11:18:58 AM 39.8472 -89.1911 89° East 530 610 41,000  Level Kansas City Center
Sun 11:20:01 AM 39.8467 -88.9997 90° East 532 612 41,000  Level Kansas City Center
Sun 11:21:03 AM 39.8464 -88.8083 90° East 532 612 41,000  Level Kansas City Center
Sun 11:22:02 AM 39.8456 -88.6164 90° East 532 612 41,000  Level Kansas City Center
Sun 11:23:06 AM 39.8453 -88.4247 90° East 531 611 41,000  Level Kansas City Center
Sun 11:24:07 AM 39.8442 -88.1919 90° East 535 616 41,000  Level Kansas City Center
Sun 11:24:39 AM 39.8428 -88.1014 91° East 536 617 41,000  Level Indianapolis Center
Sun 11:25:03 AM 39.8417 -88.0258 91° East 534 615 41,000  Level Indianapolis Center
Sun 11:26:04 AM 39.8661 -87.8364 80° East 532 612 41,000  Level Indianapolis Center
Sun 11:27:06 AM 39.8908 -87.6472 80° East 531 611 41,000  Level Indianapolis Center
Sun 11:28:07 AM 39.9139 -87.4583 81° East 530 610 41,000  Level Indianapolis Center
Sun 11:29:08 AM 39.9419 -87.2322 81° East 529 609 41,000  Level Indianapolis Center
Sun 11:30:10 AM 39.9647 -87.0433 81° East 530 610 41,000  Level Indianapolis Center
Sun 11:31:11 AM 39.9872 -86.8553 81° East 527 606 41,000  Level Indianapolis Center
Sun 11:32:12 AM 40.0100 -86.6653 81° East 528 608 41,000  Level Indianapolis Center
Sun 11:33:13 AM 40.0314 -86.4747 82° East 527 606 41,000  Level Indianapolis Center
Sun 11:34:15 AM 40.0539 -86.2861 81° East 523 602 41,000  Level Indianapolis Center
Sun 11:35:16 AM 40.0756 -86.0967 81° East 523 602 41,000  Level Indianapolis Center
Sun 11:36:17 AM 40.0958 -85.9069 82° East 525 604 41,000  Level Indianapolis Center
Sun 11:37:19 AM 40.1172 -85.7186 81° East 524 603 41,000  Level Indianapolis Center
Sun 11:38:20 AM 40.1444 -85.5325 79° East 524 603 41,000  Level Indianapolis Center
Sun 11:39:21 AM 40.2039 -85.3636 65° Northeast 514 592 41,000  Level Indianapolis Center
Sun 11:40:22 AM 40.2639 -85.1964 65° Northeast 511 588 41,000  Level Indianapolis Center
Sun 11:41:24 AM 40.3347 -84.9956 65° Northeast 510 587 41,000  Level Indianapolis Center
Sun 11:42:25 AM 40.3847 -84.8519 65° Northeast 510 587 41,000  Level Indianapolis Center
Sun 11:43:26 AM 40.4556 -84.6483 65° Northeast 510 587 41,000  Level Indianapolis Center
Sun 11:44:28 AM 40.5150 -84.4794 65° Northeast 510 587 41,000  Level Indianapolis Center
Sun 11:45:29 AM 40.5731 -84.3069 66° East 514 592 41,000  Level Indianapolis Center
Sun 11:46:30 AM 40.6325 -84.1350 65° Northeast 515 593 41,000  Level Indianapolis Center
Sun 11:47:31 AM 40.6917 -83.9611 66° East 519 597 41,000  Level Indianapolis Center
Sun 11:48:33 AM 40.7511 -83.7847 66° East 523 602 41,000  Level Indianapolis Center
Sun 11:49:34 AM 40.8092 -83.6086 66° East 523 602 41,000  Level Indianapolis Center
Sun 11:50:35 AM 40.8628 -83.4147 70° East 528 608 41,000  Level Indianapolis Center
Sun 11:51:37 AM 40.9136 -83.2308 70° East 528 608 41,000  Level Indianapolis Center
Sun 11:52:38 AM 40.9656 -83.0503 69° East 522 601 41,000  Level Indianapolis Center
Sun 11:53:47 AM 41.0231 -82.8389 70° East 521 600 41,000  Level Cleveland Center
Sun 11:54:48 AM 41.0731 -82.6564 70° East 521 600 41,000  Level Cleveland Center
Sun 11:55:50 AM 41.1233 -82.4731 70° East 524 603 41,000  Level Cleveland Center
Sun 11:56:51 AM 41.1736 -82.2894 70° East 525 604 41,000  Level Cleveland Center
Sun 11:57:52 AM 41.2258 -82.0925 71° East 526 605 41,000  Level Cleveland Center
Sun 11:58:54 AM 41.2747 -81.9067 71° East 529 609 41,000  Level Cleveland Center
Sun 11:59:55 AM 41.3244 -81.7211 70° East 531 611 41,000  Level Cleveland Center
Sun 12:00:56 PM 41.3714 -81.5372 71° East 530 610 41,000  Level Cleveland Center
Sun 12:01:58 PM 41.4219 -81.3400 71° East 531 611 41,000  Level Cleveland Center
Sun 12:02:59 PM 41.4708 -81.1489 71° East 539 620 41,000  Level Cleveland Center
Sun 12:04:00 PM 41.5197 -80.9575 71° East 539 620 41,000  Level Cleveland Center
Sun 12:05:02 PM 41.5678 -80.7661 71° East 539 620 41,000  Level Cleveland Center
Sun 12:06:03 PM 41.6164 -80.5753 71° East 539 620 41,000  Level Cleveland Center
Sun 12:07:04 PM 41.6656 -80.3822 71° East 542 624 41,000  Level Cleveland Center
Sun 12:08:06 PM 41.7142 -80.1892 71° East 542 624 41,000  Level Cleveland Center
Sun 12:09:07 PM 41.7614 -79.9961 72° East 542 624 41,000  Level Cleveland Center
Sun 12:10:08 PM 41.8078 -79.8036 72° East 542 624 41,000  Level Cleveland Center
Sun 12:11:09 PM 41.8558 -79.5994 72° East 541 623 41,000  Level Cleveland Center
Sun 12:12:11 PM 41.9022 -79.4083 72° East 537 618 41,000  Level Cleveland Center
Sun 12:13:12 PM 41.9478 -79.2139 72° East 542 624 41,000  Level Cleveland Center
Sun 12:14:13 PM 41.9933 -79.0200 72° East 542 624 41,000  Level Cleveland Center
Sun 12:15:15 PM 42.0389 -78.8236 73° East 547 629 41,000  Level Cleveland Center
Sun 12:16:16 PM 42.0931 -78.5894 73° East 547 629 41,000  Level Cleveland Center
Sun 12:17:17 PM 42.1372 -78.3936 73° East 546 628 41,000  Level Cleveland Center
Sun 12:18:18 PM 42.1781 -78.2114 73° East 546 628 41,000  Level Cleveland Center
Sun 12:19:20 PM 42.2228 -78.0200 72° East 541 623 41,000  Level Cleveland Center
Sun 12:20:21 PM 42.2661 -77.8261 73° East 544 626 41,000  Level Cleveland Center
Sun 12:21:22 PM 42.3172 -77.5944 73° East 544 626 41,000  Level Cleveland Center
Sun 12:22:24 PM 42.3592 -77.3989 74° East 548 631 41,000  Level Cleveland Center
Sun 12:23:25 PM 42.4008 -77.2033 74° East 548 631 41,000  Level Cleveland Center
Sun 12:24:26 PM 42.4419 -77.0067 74° East 548 631 41,000  Level Cleveland Center
Sun 12:25:25 PM 42.4631 -76.8042 82° East 547 629 41,000  Level Boston Center
Sun 12:26:26 PM 42.4861 -76.6008 81° East 547 629 41,000  Level Boston Center
Sun 12:27:27 PM 42.5061 -76.3986 82° East 547 629 41,000  Level Boston Center
Sun 12:28:28 PM 42.5294 -76.1839 82° East 543 625 41,000  Level Boston Center
Sun 12:29:28 PM 42.5497 -75.9831 82° East 543 625 41,000  Level Boston Center
Sun 12:30:30 PM 42.5694 -75.7831 82° East 542 624 41,000 -295 Level Boston Center
Sun 12:31:30 PM 42.5900 -75.5814 82° East 541 623 40,400 -793 Descending Boston Center
Sun 12:32:31 PM 42.6094 -75.3800 82° East 542 624 39,400 -942 Descending Boston Center
Sun 12:33:31 PM 42.6281 -75.1769 83° East 545 627 38,500 -942 Descending Boston Center
Sun 12:34:32 PM 42.6458 -74.9714 83° East 550 633 37,500 -744 Descending Boston Center
Sun 12:35:32 PM 42.6661 -74.7656 82° East 552 635 37,000 -242 Descending Boston Center
Sun 12:36:36 PM 42.6883 -74.5186 83° East 554 638 37,000  Level Boston Center
Sun 12:37:36 PM 42.6978 -74.3083 86° East 557 641 37,000  Level Boston Center
Sun 12:38:38 PM 42.6833 -74.1000 95° East 557 641 37,000  Level Boston Center
Sun 12:39:38 PM 42.6703 -73.9183 96° East 554 638 37,000 -99 Level Boston Center
Sun 12:40:39 PM 42.6592 -73.7092 94° East 554 638 36,800 -595 Descending Boston Center
Sun 12:41:39 PM 42.6453 -73.4969 95° East 560 644 35,800 -1,770 Descending Boston Center
Sun 12:42:41 PM 42.6286 -73.2333 95° East 584 672 33,200 -2,459 Descending Boston Center
Sun 12:43:41 PM 42.6164 -73.0575 95° East 580 667 30,800 -2,459 Descending Boston Center
Sun 12:44:43 PM 42.6008 -72.8058 95° East 558 642 28,200 -2,607 Descending Boston Center
Sun 12:45:43 PM 42.5853 -72.6028 96° East 542 624 25,500 -2,650 Descending Boston Center
Sun 12:46:43 PM 42.5725 -72.4119 95° East 515 593 22,900 -2,607 Descending Boston Center
Sun 12:47:45 PM 42.5589 -72.2222 95° East 489 563 20,200 -2,607 Descending Boston Center
Sun 12:48:45 PM 42.5481 -72.0508 95° East 465 535 17,600 -2,479 Descending Boston Center
Sun 12:49:46 PM 42.5317 -71.8875 98° East 438 504 15,200 -2,410 Descending Boston Center
Sun 12:50:47 PM 42.5158 -71.7222 97° East 414 476 12,700 -2,094 Descending Boston Center
Sun 12:51:32 PM 42.5000 -71.6167 101° East 394 453 11,500 -1,302 Descending KA90
Sun 12:52:33 PM 42.5000 -71.4667 90° East 377 434 10,400 -1,091 Descending KA90
Sun 12:53:33 PM 42.4833 -71.3333 100° East 339 390 9,300 -1,050 Descending KA90
Sun 12:54:33 PM 42.4667 -71.2167 101° East 325 374 8,300 -1,000 Descending KA90
Sun 12:55:33 PM 42.4500 -71.1000 101° East 305 351 7,300 -650 Descending KA90
Sun 12:56:33 PM 42.4500 -71.0000 90° East 262 302 7,000 -550 Descending KA90
Sun 12:57:33 PM 42.4167 -70.9167 118° Southeast 254 292 6,200 -900 Descending KA90
Sun 12:58:33 PM 42.3667 -70.8500 135° Southeast 242 278 5,200 -1,250 Descending KA90
Sun 12:59:33 PM 42.3167 -70.8000 144° Southeast 228 262 3,700 -1,150 Descending KA90
Sun 01:00:33 PM 42.2667 -70.8167 194° South 155 178 2,900 -800 Descending KA90
Sun 01:01:33 PM 42.2667 -70.8667 270° West 148 170 2,100 -550 Descending KA90
Sun 01:02:33 PM 42.3000 -70.9167 312° West 150 173 1,800 -550 Descending KA90
Sun 01:03:33 PM 42.3333 -70.9500 324° Northwest 141 162 1,000 -750 Descending KA90
Sun 01:04:33 PM 42.3500 -70.9833 304° West 118 136 300 -700 Descending KA90

Login

Don't have an account? Register now (free) for customized features, flight alerts, and more!